KBWG/BWG METAR and TAF weather

Enter ICAO airport designator
Station Type Date Time Source
KBWG METAR 2018/01/22 11:53 UTC NOAA

KBWG 221153Z AUTO 18010G20KT 10SM CLR 15/07 A2989 RMK AO2 SLP119 T01500067 10156 20139 55021


Station Type Date Time Source
KBWG Decoded METAR 2018/01/22 11:53 UTC NOAA

BOWLING GREEN-WARREN CO RGNL, KY, United States (KBWG) 36-58N 086-25W 161M
Jan 22, 2018 - 06:53 AM EST / 2018.01.22 1153 UTC
Wind: from the S (180 degrees) at 12 MPH (10 KT) gusting to 23 MPH (20 KT):0
Visibility: 10 mile(s):0
Sky conditions: clear
Temperature: 59.0 F (15.0 C)
Dew Point: 44.1 F (6.7 C)
Relative Humidity: 57%
Pressure (altimeter): 29.89 in. Hg (1012 hPa)
Pressure tendency: 0.06 inches (2.1 hPa) lower than three hours ago
ob: KBWG 221153Z AUTO 18010G20KT 10SM CLR 15/07 A2989 RMK AO2 SLP119 T01500067 10156 20139 55021
cycle: 12

Station Type Date Time Source
KBWG TAF 2018/01/22 12:22 UTC NOAA

TAF KBWG 221120Z 2212/2312 17014G20KT P6SM BKN080
FM221600 18017G25KT P6SM -SHRA OVC060
FM221800 18016G26KT P6SM -SHRA BKN025
FM222200 19016G23KT P6SM VCSH BKN040
FM230400 23016G26KT P6SM SCT200


Example: see airport list